sensor_id;sensor_type;location;lat;lon;timestamp;P1;durP1;ratioP1;P2;durP2;ratioP2
68072;SDS011;54862;51.502;7.446;2023-04-03T00:01:13;12.70;;;6.80;;
68072;SDS011;54862;51.502;7.446;2023-04-03T00:03:40;11.15;;;7.32;;
68072;SDS011;54862;51.502;7.446;2023-04-03T00:06:09;15.73;;;7.80;;
68072;SDS011;54862;51.502;7.446;2023-04-03T00:08:36;11.93;;;6.57;;
68072;SDS011;54862;51.502;7.446;2023-04-03T00:11:02;12.98;;;6.60;;
68072;SDS011;54862;51.502;7.446;2023-04-03T00:13:31;13.30;;;7.15;;
68072;SDS011;54862;51.502;7.446;2023-04-03T00:15:59;15.55;;;6.93;;
68072;SDS011;54862;51.502;7.446;2023-04-03T00:18:28;15.75;;;7.35;;
68072;SDS011;54862;51.502;7.446;2023-04-03T00:20:55;13.15;;;7.13;;
68072;SDS011;54862;51.502;7.446;2023-04-03T00:23:23;19.73;;;7.95;;
68072;SDS011;54862;51.502;7.446;2023-04-03T00:25:49;14.35;;;7.13;;
68072;SDS011;54862;51.502;7.446;2023-04-03T00:28:15;14.60;;;7.43;;
68072;SDS011;54862;51.502;7.446;2023-04-03T00:30:41;13.48;;;7.47;;
68072;SDS011;54862;51.502;7.446;2023-04-03T00:33:08;13.02;;;6.60;;
68072;SDS011;54862;51.502;7.446;2023-04-03T00:35:37;13.75;;;7.40;;
68072;SDS011;54862;51.502;7.446;2023-04-03T00:38:06;12.32;;;6.05;;
68072;SDS011;54862;51.502;7.446;2023-04-03T00:40:39;11.70;;;6.35;;
68072;SDS011;54862;51.502;7.446;2023-04-03T00:43:11;13.80;;;6.18;;
68072;SDS011;54862;51.502;7.446;2023-04-03T00:45:41;12.02;;;5.50;;
68072;SDS011;54862;51.502;7.446;2023-04-03T00:48:10;12.93;;;5.72;;
68072;SDS011;54862;51.502;7.446;2023-04-03T00:50:38;11.65;;;5.20;;
68072;SDS011;54862;51.502;7.446;2023-04-03T00:53:06;9.75;;;4.93;;
68072;SDS011;54862;51.502;7.446;2023-04-03T00:55:35;9.95;;;5.22;;
68072;SDS011;54862;51.502;7.446;2023-04-03T00:58:02;11.65;;;5.10;;
68072;SDS011;54862;51.502;7.446;2023-04-03T01:00:28;11.65;;;5.40;;
68072;SDS011;54862;51.502;7.446;2023-04-03T01:02:54;10.15;;;5.40;;
68072;SDS011;54862;51.502;7.446;2023-04-03T01:05:20;12.35;;;5.30;;
68072;SDS011;54862;51.502;7.446;2023-04-03T01:07:47;10.43;;;5.55;;
68072;SDS011;54862;51.502;7.446;2023-04-03T01:10:14;12.77;;;5.72;;
68072;SDS011;54862;51.502;7.446;2023-04-03T01:12:47;11.93;;;6.15;;
68072;SDS011;54862;51.502;7.446;2023-04-03T01:15:18;12.05;;;5.78;;
68072;SDS011;54862;51.502;7.446;2023-04-03T01:17:52;11.35;;;5.13;;
68072;SDS011;54862;51.502;7.446;2023-04-03T01:25:35;10.48;;;4.82;;
68072;SDS011;54862;51.502;7.446;2023-04-03T01:28:02;10.75;;;4.78;;
68072;SDS011;54862;51.502;7.446;2023-04-03T01:30:32;12.32;;;4.90;;
68072;SDS011;54862;51.502;7.446;2023-04-03T01:33:00;9.25;;;4.43;;
68072;SDS011;54862;51.502;7.446;2023-04-03T01:35:26;13.65;;;5.00;;
68072;SDS011;54862;51.502;7.446;2023-04-03T01:37:55;8.35;;;4.53;;
68072;SDS011;54862;51.502;7.446;2023-04-03T01:40:23;10.40;;;4.00;;
68072;SDS011;54862;51.502;7.446;2023-04-03T01:42:49;9.55;;;4.45;;
68072;SDS011;54862;51.502;7.446;2023-04-03T01:45:15;8.55;;;3.97;;
68072;SDS011;54862;51.502;7.446;2023-04-03T01:47:41;8.32;;;4.10;;
68072;SDS011;54862;51.502;7.446;2023-04-03T01:50:07;8.00;;;3.50;;
68072;SDS011;54862;51.502;7.446;2023-04-03T01:52:38;8.77;;;4.22;;
68072;SDS011;54862;51.502;7.446;2023-04-03T01:55:04;8.20;;;3.65;;
68072;SDS011;54862;51.502;7.446;2023-04-03T01:57:30;7.05;;;3.72;;
68072;SDS011;54862;51.502;7.446;2023-04-03T01:59:56;10.07;;;4.03;;
68072;SDS011;54862;51.502;7.446;2023-04-03T02:02:24;10.60;;;3.60;;
68072;SDS011;54862;51.502;7.446;2023-04-03T02:04:53;10.57;;;3.80;;
68072;SDS011;54862;51.502;7.446;2023-04-03T02:07:19;7.70;;;3.58;;
68072;SDS011;54862;51.502;7.446;2023-04-03T02:09:46;7.97;;;3.60;;
68072;SDS011;54862;51.502;7.446;2023-04-03T02:12:12;10.50;;;3.83;;
68072;SDS011;54862;51.502;7.446;2023-04-03T02:14:38;8.32;;;3.75;;
68072;SDS011;54862;51.502;7.446;2023-04-03T02:17:04;7.38;;;3.60;;
68072;SDS011;54862;51.502;7.446;2023-04-03T02:19:33;10.88;;;3.80;;
68072;SDS011;54862;51.502;7.446;2023-04-03T02:22:00;8.05;;;3.70;;
68072;SDS011;54862;51.502;7.446;2023-04-03T02:24:26;8.40;;;3.28;;
68072;SDS011;54862;51.502;7.446;2023-04-03T02:26:52;7.95;;;3.65;;
68072;SDS011;54862;51.502;7.446;2023-04-03T02:29:18;9.73;;;3.72;;
68072;SDS011;54862;51.502;7.446;2023-04-03T02:31:47;9.40;;;3.90;;
68072;SDS011;54862;51.502;7.446;2023-04-03T02:34:13;10.00;;;3.80;;
68072;SDS011;54862;51.502;7.446;2023-04-03T02:36:41;11.05;;;3.20;;
68072;SDS011;54862;51.502;7.446;2023-04-03T02:39:08;6.78;;;3.83;;
68072;SDS011;54862;51.502;7.446;2023-04-03T02:41:36;7.63;;;3.50;;
68072;SDS011;54862;51.502;7.446;2023-04-03T02:44:03;9.48;;;3.60;;
68072;SDS011;54862;51.502;7.446;2023-04-03T02:46:29;11.25;;;3.40;;
68072;SDS011;54862;51.502;7.446;2023-04-03T02:48:56;6.03;;;2.92;;
68072;SDS011;54862;51.502;7.446;2023-04-03T02:51:22;7.97;;;3.10;;
68072;SDS011;54862;51.502;7.446;2023-04-03T02:53:48;6.93;;;3.00;;
68072;SDS011;54862;51.502;7.446;2023-04-03T02:56:14;8.32;;;3.25;;
68072;SDS011;54862;51.502;7.446;2023-04-03T02:58:40;8.00;;;3.78;;
68072;SDS011;54862;51.502;7.446;2023-04-03T03:01:09;6.28;;;2.80;;
68072;SDS011;54862;51.502;7.446;2023-04-03T03:03:35;5.80;;;2.92;;
68072;SDS011;54862;51.502;7.446;2023-04-03T03:06:05;10.40;;;3.33;;
68072;SDS011;54862;51.502;7.446;2023-04-03T03:08:31;8.40;;;3.00;;
68072;SDS011;54862;51.502;7.446;2023-04-03T03:10:57;7.82;;;3.10;;
68072;SDS011;54862;51.502;7.446;2023-04-03T03:13:24;8.35;;;2.97;;
68072;SDS011;54862;51.502;7.446;2023-04-03T03:15:50;7.18;;;2.92;;
68072;SDS011;54862;51.502;7.446;2023-04-03T03:18:18;7.63;;;3.20;;
68072;SDS011;54862;51.502;7.446;2023-04-03T03:20:46;5.28;;;2.58;;
68072;SDS011;54862;51.502;7.446;2023-04-03T03:23:18;4.95;;;2.67;;
68072;SDS011;54862;51.502;7.446;2023-04-03T03:25:44;5.57;;;2.70;;
68072;SDS011;54862;51.502;7.446;2023-04-03T03:28:13;7.50;;;2.80;;
68072;SDS011;54862;51.502;7.446;2023-04-03T03:30:39;8.65;;;3.00;;
68072;SDS011;54862;51.502;7.446;2023-04-03T03:33:07;7.40;;;2.40;;
68072;SDS011;54862;51.502;7.446;2023-04-03T03:35:36;9.55;;;2.88;;
68072;SDS011;54862;51.502;7.446;2023-04-03T03:38:02;7.13;;;2.70;;
68072;SDS011;54862;51.502;7.446;2023-04-03T03:40:28;6.15;;;2.35;;
68072;SDS011;54862;51.502;7.446;2023-04-03T03:42:54;6.30;;;2.15;;
68072;SDS011;54862;51.502;7.446;2023-04-03T03:45:22;6.95;;;2.67;;
68072;SDS011;54862;51.502;7.446;2023-04-03T03:47:48;6.13;;;2.50;;
68072;SDS011;54862;51.502;7.446;2023-04-03T03:50:17;6.20;;;2.45;;
68072;SDS011;54862;51.502;7.446;2023-04-03T03:52:43;5.45;;;2.67;;
68072;SDS011;54862;51.502;7.446;2023-04-03T03:55:11;9.60;;;2.67;;
68072;SDS011;54862;51.502;7.446;2023-04-03T03:57:42;6.63;;;2.78;;
68072;SDS011;54862;51.502;7.446;2023-04-03T04:00:08;8.25;;;3.00;;
68072;SDS011;54862;51.502;7.446;2023-04-03T04:02:34;9.38;;;3.17;;
68072;SDS011;54862;51.502;7.446;2023-04-03T04:05:00;4.03;;;2.00;;
68072;SDS011;54862;51.502;7.446;2023-04-03T04:07:26;7.20;;;2.58;;
68072;SDS011;54862;51.502;7.446;2023-04-03T04:09:54;6.63;;;2.45;;
68072;SDS011;54862;51.502;7.446;2023-04-03T04:12:20;6.13;;;2.50;;
68072;SDS011;54862;51.502;7.446;2023-04-03T04:14:49;9.07;;;2.85;;
68072;SDS011;54862;51.502;7.446;2023-04-03T04:17:15;6.88;;;2.40;;
68072;SDS011;54862;51.502;7.446;2023-04-03T04:19:41;4.43;;;2.35;;
68072;SDS011;54862;51.502;7.446;2023-04-03T04:22:09;8.85;;;2.55;;
68072;SDS011;54862;51.502;7.446;2023-04-03T04:24:35;8.38;;;2.45;;
68072;SDS011;54862;51.502;7.446;2023-04-03T04:27:01;5.40;;;2.35;;
68072;SDS011;54862;51.502;7.446;2023-04-03T04:29:27;7.63;;;2.47;;
68072;SDS011;54862;51.502;7.446;2023-04-03T04:31:53;10.45;;;3.25;;
68072;SDS011;54862;51.502;7.446;2023-04-03T04:34:21;8.25;;;2.58;;
68072;SDS011;54862;51.502;7.446;2023-04-03T04:36:47;7.25;;;2.53;;
68072;SDS011;54862;51.502;7.446;2023-04-03T04:39:13;4.53;;;2.33;;
68072;SDS011;54862;51.502;7.446;2023-04-03T04:41:39;6.82;;;2.22;;
68072;SDS011;54862;51.502;7.446;2023-04-03T04:44:05;6.10;;;2.30;;
68072;SDS011;54862;51.502;7.446;2023-04-03T04:46:31;8.85;;;2.53;;
68072;SDS011;54862;51.502;7.446;2023-04-03T04:48:57;7.47;;;3.10;;
68072;SDS011;54862;51.502;7.446;2023-04-03T04:51:25;5.15;;;2.85;;
68072;SDS011;54862;51.502;7.446;2023-04-03T04:53:51;8.00;;;3.10;;
68072;SDS011;54862;51.502;7.446;2023-04-03T04:56:17;6.63;;;2.80;;
68072;SDS011;54862;51.502;7.446;2023-04-03T04:58:46;5.57;;;2.47;;
68072;SDS011;54862;51.502;7.446;2023-04-03T05:01:12;7.90;;;2.70;;
68072;SDS011;54862;51.502;7.446;2023-04-03T05:03:38;8.88;;;2.83;;
68072;SDS011;54862;51.502;7.446;2023-04-03T05:06:04;9.07;;;2.47;;
68072;SDS011;54862;51.502;7.446;2023-04-03T05:08:30;8.65;;;2.70;;
68072;SDS011;54862;51.502;7.446;2023-04-03T05:11:01;5.05;;;2.47;;
68072;SDS011;54862;51.502;7.446;2023-04-03T05:13:29;6.55;;;2.33;;
68072;SDS011;54862;51.502;7.446;2023-04-03T05:15:55;7.25;;;2.80;;
68072;SDS011;54862;51.502;7.446;2023-04-03T05:18:21;5.32;;;2.45;;
68072;SDS011;54862;51.502;7.446;2023-04-03T05:20:50;11.75;;;2.97;;
68072;SDS011;54862;51.502;7.446;2023-04-03T05:23:16;7.47;;;3.13;;
68072;SDS011;54862;51.502;7.446;2023-04-03T05:25:42;9.00;;;2.88;;
68072;SDS011;54862;51.502;7.446;2023-04-03T05:28:12;8.00;;;2.65;;
68072;SDS011;54862;51.502;7.446;2023-04-03T05:30:41;5.97;;;2.45;;
68072;SDS011;54862;51.502;7.446;2023-04-03T05:33:07;7.93;;;2.60;;
68072;SDS011;54862;51.502;7.446;2023-04-03T05:35:35;5.55;;;2.50;;
68072;SDS011;54862;51.502;7.446;2023-04-03T05:38:01;8.85;;;2.75;;
68072;SDS011;54862;51.502;7.446;2023-04-03T05:40:29;6.05;;;2.40;;
68072;SDS011;54862;51.502;7.446;2023-04-03T05:42:55;4.85;;;2.63;;
68072;SDS011;54862;51.502;7.446;2023-04-03T05:45:21;7.20;;;2.10;;
68072;SDS011;54862;51.502;7.446;2023-04-03T05:47:47;7.85;;;2.42;;
68072;SDS011;54862;51.502;7.446;2023-04-03T05:50:13;6.97;;;2.63;;
68072;SDS011;54862;51.502;7.446;2023-04-03T05:52:40;5.60;;;2.35;;
68072;SDS011;54862;51.502;7.446;2023-04-03T05:55:10;6.85;;;2.50;;
68072;SDS011;54862;51.502;7.446;2023-04-03T05:57:36;8.35;;;2.90;;
68072;SDS011;54862;51.502;7.446;2023-04-03T06:00:05;6.60;;;2.47;;
68072;SDS011;54862;51.502;7.446;2023-04-03T06:02:31;4.57;;;2.40;;
68072;SDS011;54862;51.502;7.446;2023-04-03T06:04:57;10.75;;;3.50;;
68072;SDS011;54862;51.502;7.446;2023-04-03T06:07:25;7.53;;;2.72;;
68072;SDS011;54862;51.502;7.446;2023-04-03T06:09:53;7.53;;;2.55;;
68072;SDS011;54862;51.502;7.446;2023-04-03T06:12:20;7.18;;;2.78;;
68072;SDS011;54862;51.502;7.446;2023-04-03T06:14:49;6.75;;;2.58;;
68072;SDS011;54862;51.502;7.446;2023-04-03T06:17:17;5.93;;;2.83;;
68072;SDS011;54862;51.502;7.446;2023-04-03T06:19:45;6.13;;;2.85;;
68072;SDS011;54862;51.502;7.446;2023-04-03T06:22:11;8.60;;;2.90;;
68072;SDS011;54862;51.502;7.446;2023-04-03T06:24:38;11.00;;;2.85;;
68072;SDS011;54862;51.502;7.446;2023-04-03T06:27:04;5.82;;;2.65;;
68072;SDS011;54862;51.502;7.446;2023-04-03T06:29:30;4.70;;;2.00;;
68072;SDS011;54862;51.502;7.446;2023-04-03T06:31:58;7.05;;;2.30;;
68072;SDS011;54862;51.502;7.446;2023-04-03T06:34:24;7.15;;;2.42;;
68072;SDS011;54862;51.502;7.446;2023-04-03T06:36:50;7.78;;;2.47;;
68072;SDS011;54862;51.502;7.446;2023-04-03T06:39:18;6.75;;;2.35;;
68072;SDS011;54862;51.502;7.446;2023-04-03T06:41:47;6.53;;;2.20;;
68072;SDS011;54862;51.502;7.446;2023-04-03T06:44:14;5.65;;;2.20;;
68072;SDS011;54862;51.502;7.446;2023-04-03T06:46:41;6.25;;;2.42;;
68072;SDS011;54862;51.502;7.446;2023-04-03T06:49:07;8.32;;;2.58;;
68072;SDS011;54862;51.502;7.446;2023-04-03T06:51:33;6.43;;;2.22;;
68072;SDS011;54862;51.502;7.446;2023-04-03T06:54:02;7.80;;;2.45;;
68072;SDS011;54862;51.502;7.446;2023-04-03T06:56:28;6.88;;;2.55;;
68072;SDS011;54862;51.502;7.446;2023-04-03T06:58:55;9.27;;;2.65;;
68072;SDS011;54862;51.502;7.446;2023-04-03T07:01:25;7.47;;;2.60;;
68072;SDS011;54862;51.502;7.446;2023-04-03T07:03:55;6.85;;;2.45;;
68072;SDS011;54862;51.502;7.446;2023-04-03T07:06:21;8.23;;;2.20;;
68072;SDS011;54862;51.502;7.446;2023-04-03T07:08:48;7.57;;;2.67;;
68072;SDS011;54862;51.502;7.446;2023-04-03T07:11:14;10.55;;;2.90;;
68072;SDS011;54862;51.502;7.446;2023-04-03T07:13:42;8.90;;;2.60;;
68072;SDS011;54862;51.502;7.446;2023-04-03T07:16:09;9.23;;;2.75;;
68072;SDS011;54862;51.502;7.446;2023-04-03T07:18:37;6.00;;;2.50;;
68072;SDS011;54862;51.502;7.446;2023-04-03T07:21:03;4.78;;;2.35;;
68072;SDS011;54862;51.502;7.446;2023-04-03T07:23:29;8.02;;;2.28;;
68072;SDS011;54862;51.502;7.446;2023-04-03T07:25:58;6.32;;;2.53;;
68072;SDS011;54862;51.502;7.446;2023-04-03T07:28:24;10.80;;;2.15;;
68072;SDS011;54862;51.502;7.446;2023-04-03T07:31:04;5.70;;;2.30;;
68072;SDS011;54862;51.502;7.446;2023-04-03T07:33:31;6.53;;;2.20;;
68072;SDS011;54862;51.502;7.446;2023-04-03T07:35:57;6.22;;;2.70;;
68072;SDS011;54862;51.502;7.446;2023-04-03T07:38:23;8.30;;;2.28;;
68072;SDS011;54862;51.502;7.446;2023-04-03T07:40:50;6.32;;;2.35;;
68072;SDS011;54862;51.502;7.446;2023-04-03T07:43:17;5.60;;;2.03;;
68072;SDS011;54862;51.502;7.446;2023-04-03T07:45:46;5.93;;;2.10;;
68072;SDS011;54862;51.502;7.446;2023-04-03T07:48:15;5.28;;;2.25;;
68072;SDS011;54862;51.502;7.446;2023-04-03T07:50:42;8.10;;;2.45;;
68072;SDS011;54862;51.502;7.446;2023-04-03T07:53:08;7.57;;;2.38;;
68072;SDS011;54862;51.502;7.446;2023-04-03T07:55:34;5.78;;;2.35;;
68072;SDS011;54862;51.502;7.446;2023-04-03T07:58:08;6.80;;;2.00;;
68072;SDS011;54862;51.502;7.446;2023-04-03T08:00:35;12.48;;;2.20;;
68072;SDS011;54862;51.502;7.446;2023-04-03T08:03:01;6.40;;;2.13;;
68072;SDS011;54862;51.502;7.446;2023-04-03T08:05:30;6.65;;;2.40;;
68072;SDS011;54862;51.502;7.446;2023-04-03T08:07:56;9.93;;;2.40;;
68072;SDS011;54862;51.502;7.446;2023-04-03T08:10:23;6.72;;;2.63;;
68072;SDS011;54862;51.502;7.446;2023-04-03T08:12:49;5.50;;;2.53;;
68072;SDS011;54862;51.502;7.446;2023-04-03T08:15:15;5.60;;;2.15;;
68072;SDS011;54862;51.502;7.446;2023-04-03T08:17:41;4.72;;;1.90;;
68072;SDS011;54862;51.502;7.446;2023-04-03T08:20:07;6.50;;;2.20;;
68072;SDS011;54862;51.502;7.446;2023-04-03T08:22:33;4.15;;;2.13;;
68072;SDS011;54862;51.502;7.446;2023-04-03T08:24:59;4.60;;;2.03;;
68072;SDS011;54862;51.502;7.446;2023-04-03T08:27:26;4.75;;;2.10;;
68072;SDS011;54862;51.502;7.446;2023-04-03T08:29:53;4.30;;;2.42;;
68072;SDS011;54862;51.502;7.446;2023-04-03T08:32:19;6.03;;;2.05;;
68072;SDS011;54862;51.502;7.446;2023-04-03T08:34:45;7.05;;;2.30;;
68072;SDS011;54862;51.502;7.446;2023-04-03T08:37:11;5.13;;;2.28;;
68072;SDS011;54862;51.502;7.446;2023-04-03T08:39:38;4.30;;;1.95;;
68072;SDS011;54862;51.502;7.446;2023-04-03T08:42:14;6.53;;;2.45;;
68072;SDS011;54862;51.502;7.446;2023-04-03T08:44:53;5.82;;;2.08;;
68072;SDS011;54862;51.502;7.446;2023-04-03T08:47:29;7.10;;;2.00;;
68072;SDS011;54862;51.502;7.446;2023-04-03T08:50:05;5.30;;;1.83;;
68072;SDS011;54862;51.502;7.446;2023-04-03T08:52:42;3.63;;;1.98;;
68072;SDS011;54862;51.502;7.446;2023-04-03T08:57:39;5.05;;;2.10;;
68072;SDS011;54862;51.502;7.446;2023-04-03T09:00:17;6.55;;;1.92;;
68072;SDS011;54862;51.502;7.446;2023-04-03T09:02:51;6.65;;;2.05;;
68072;SDS011;54862;51.502;7.446;2023-04-03T09:05:18;8.27;;;2.30;;
68072;SDS011;54862;51.502;7.446;2023-04-03T09:07:49;7.40;;;2.53;;
68072;SDS011;54862;51.502;7.446;2023-04-03T09:10:23;5.28;;;2.58;;
68072;SDS011;54862;51.502;7.446;2023-04-03T09:13:03;4.50;;;1.92;;
68072;SDS011;54862;51.502;7.446;2023-04-03T09:15:34;7.88;;;1.90;;
68072;SDS011;54862;51.502;7.446;2023-04-03T09:20:39;8.25;;;2.22;;
68072;SDS011;54862;51.502;7.446;2023-04-03T09:23:50;4.32;;;1.83;;
68072;SDS011;54862;51.502;7.446;2023-04-03T09:26:00;6.60;;;2.22;;
68072;SDS011;54862;51.502;7.446;2023-04-03T09:28:28;5.10;;;2.05;;
68072;SDS011;54862;51.502;7.446;2023-04-03T09:30:55;7.40;;;2.30;;
68072;SDS011;54862;51.502;7.446;2023-04-03T09:33:24;6.43;;;2.25;;
68072;SDS011;54862;51.502;7.446;2023-04-03T09:35:52;7.90;;;2.38;;
68072;SDS011;54862;51.502;7.446;2023-04-03T09:38:21;5.97;;;2.15;;
68072;SDS011;54862;51.502;7.446;2023-04-03T09:41:13;4.55;;;1.75;;
68072;SDS011;54862;51.502;7.446;2023-04-03T09:43:34;4.45;;;1.90;;
68072;SDS011;54862;51.502;7.446;2023-04-03T09:48:52;6.15;;;1.98;;
68072;SDS011;54862;51.502;7.446;2023-04-03T09:51:21;6.15;;;2.03;;
68072;SDS011;54862;51.502;7.446;2023-04-03T09:53:51;7.18;;;2.28;;
68072;SDS011;54862;51.502;7.446;2023-04-03T09:58:49;6.82;;;2.08;;
68072;SDS011;54862;51.502;7.446;2023-04-03T10:06:32;6.60;;;2.50;;
68072;SDS011;54862;51.502;7.446;2023-04-03T10:09:05;5.32;;;2.60;;
68072;SDS011;54862;51.502;7.446;2023-04-03T10:11:34;5.82;;;2.05;;
68072;SDS011;54862;51.502;7.446;2023-04-03T10:14:02;5.40;;;2.50;;
68072;SDS011;54862;51.502;7.446;2023-04-03T10:31:59;5.43;;;2.13;;
68072;SDS011;54862;51.502;7.446;2023-04-03T10:34:31;6.53;;;2.00;;
68072;SDS011;54862;51.502;7.446;2023-04-03T10:44:46;3.45;;;1.80;;
68072;SDS011;54862;51.502;7.446;2023-04-03T10:47:34;3.53;;;1.67;;
68072;SDS011;54862;51.502;7.446;2023-04-03T10:52:36;6.22;;;2.05;;
68072;SDS011;54862;51.502;7.446;2023-04-03T10:57:40;4.47;;;2.10;;
68072;SDS011;54862;51.502;7.446;2023-04-03T11:00:14;6.53;;;2.20;;
68072;SDS011;54862;51.502;7.446;2023-04-03T11:05:18;4.65;;;1.80;;
68072;SDS011;54862;51.502;7.446;2023-04-03T11:07:48;5.15;;;2.00;;
68072;SDS011;54862;51.502;7.446;2023-04-03T11:15:17;3.88;;;1.75;;
68072;SDS011;54862;51.502;7.446;2023-04-03T11:17:54;3.97;;;2.13;;
68072;SDS011;54862;51.502;7.446;2023-04-03T11:20:31;4.05;;;1.95;;
68072;SDS011;54862;51.502;7.446;2023-04-03T11:23:20;5.05;;;1.80;;
68072;SDS011;54862;51.502;7.446;2023-04-03T11:25:50;5.63;;;2.03;;
68072;SDS011;54862;51.502;7.446;2023-04-03T11:28:19;6.43;;;1.90;;
68072;SDS011;54862;51.502;7.446;2023-04-03T11:30:51;4.47;;;2.00;;
68072;SDS011;54862;51.502;7.446;2023-04-03T11:35:48;3.58;;;1.90;;
68072;SDS011;54862;51.502;7.446;2023-04-03T11:38:25;3.17;;;1.60;;
68072;SDS011;54862;51.502;7.446;2023-04-03T11:40:55;3.45;;;1.85;;
68072;SDS011;54862;51.502;7.446;2023-04-03T11:43:23;4.25;;;1.80;;
68072;SDS011;54862;51.502;7.446;2023-04-03T11:46:03;6.28;;;2.10;;
68072;SDS011;54862;51.502;7.446;2023-04-03T11:51:00;5.45;;;1.75;;
68072;SDS011;54862;51.502;7.446;2023-04-03T11:53:36;6.65;;;1.77;;
68072;SDS011;54862;51.502;7.446;2023-04-03T12:01:44;3.67;;;1.65;;
68072;SDS011;54862;51.502;7.446;2023-04-03T12:04:13;5.20;;;2.00;;
68072;SDS011;54862;51.502;7.446;2023-04-03T12:12:21;3.50;;;1.67;;
68072;SDS011;54862;51.502;7.446;2023-04-03T12:14:50;6.00;;;2.67;;
68072;SDS011;54862;51.502;7.446;2023-04-03T12:17:20;4.20;;;1.80;;
68072;SDS011;54862;51.502;7.446;2023-04-03T12:19:50;3.58;;;1.70;;
68072;SDS011;54862;51.502;7.446;2023-04-03T12:22:17;6.53;;;2.13;;
68072;SDS011;54862;51.502;7.446;2023-04-03T12:24:48;3.08;;;1.80;;
68072;SDS011;54862;51.502;7.446;2023-04-03T12:27:33;3.42;;;1.75;;
68072;SDS011;54862;51.502;7.446;2023-04-03T12:35:10;6.28;;;2.10;;
68072;SDS011;54862;51.502;7.446;2023-04-03T12:45:39;5.07;;;1.95;;
68072;SDS011;54862;51.502;7.446;2023-04-03T12:48:06;3.78;;;1.70;;
68072;SDS011;54862;51.502;7.446;2023-04-03T12:50:40;3.53;;;1.63;;
68072;SDS011;54862;51.502;7.446;2023-04-03T12:53:11;4.85;;;1.75;;
68072;SDS011;54862;51.502;7.446;2023-04-03T12:55:38;2.80;;;1.60;;
68072;SDS011;54862;51.502;7.446;2023-04-03T12:58:14;3.75;;;1.70;;
68072;SDS011;54862;51.502;7.446;2023-04-03T13:00:41;3.85;;;1.60;;
68072;SDS011;54862;51.502;7.446;2023-04-03T13:03:19;3.35;;;1.70;;
68072;SDS011;54862;51.502;7.446;2023-04-03T13:05:49;3.83;;;1.85;;
68072;SDS011;54862;51.502;7.446;2023-04-03T13:08:17;3.47;;;1.70;;
68072;SDS011;54862;51.502;7.446;2023-04-03T13:11:18;4.25;;;1.67;;
68072;SDS011;54862;51.502;7.446;2023-04-03T13:13:37;3.22;;;1.60;;
68072;SDS011;54862;51.502;7.446;2023-04-03T13:16:10;2.65;;;1.58;;
68072;SDS011;54862;51.502;7.446;2023-04-03T13:18:39;3.05;;;1.50;;
68072;SDS011;54862;51.502;7.446;2023-04-03T13:21:15;4.20;;;1.65;;
68072;SDS011;54862;51.502;7.446;2023-04-03T13:23:46;3.08;;;1.80;;
68072;SDS011;54862;51.502;7.446;2023-04-03T13:26:15;4.03;;;1.85;;
68072;SDS011;54862;51.502;7.446;2023-04-03T13:28:44;4.03;;;1.70;;
68072;SDS011;54862;51.502;7.446;2023-04-03T13:36:19;5.72;;;1.80;;
68072;SDS011;54862;51.502;7.446;2023-04-03T13:38:46;5.28;;;1.88;;
68072;SDS011;54862;51.502;7.446;2023-04-03T13:41:23;4.07;;;1.70;;
68072;SDS011;54862;51.502;7.446;2023-04-03T13:43:50;3.15;;;1.60;;
68072;SDS011;54862;51.502;7.446;2023-04-03T13:48:46;4.45;;;2.08;;
68072;SDS011;54862;51.502;7.446;2023-04-03T13:56:19;5.15;;;1.90;;
68072;SDS011;54862;51.502;7.446;2023-04-03T14:01:32;2.75;;;1.70;;
68072;SDS011;54862;51.502;7.446;2023-04-03T14:04:00;5.00;;;1.75;;
68072;SDS011;54862;51.502;7.446;2023-04-03T14:06:27;3.92;;;1.65;;
68072;SDS011;54862;51.502;7.446;2023-04-03T14:08:54;4.35;;;1.60;;
68072;SDS011;54862;51.502;7.446;2023-04-03T14:11:21;3.30;;;1.70;;
68072;SDS011;54862;51.502;7.446;2023-04-03T14:13:48;4.53;;;1.85;;
68072;SDS011;54862;51.502;7.446;2023-04-03T14:16:15;6.38;;;1.80;;
68072;SDS011;54862;51.502;7.446;2023-04-03T14:18:43;4.50;;;2.00;;
68072;SDS011;54862;51.502;7.446;2023-04-03T14:21:13;5.80;;;1.85;;
68072;SDS011;54862;51.502;7.446;2023-04-03T14:23:39;2.92;;;1.70;;
68072;SDS011;54862;51.502;7.446;2023-04-03T14:26:19;5.43;;;1.80;;
68072;SDS011;54862;51.502;7.446;2023-04-03T14:28:46;5.72;;;1.75;;
68072;SDS011;54862;51.502;7.446;2023-04-03T14:31:12;3.92;;;1.88;;
68072;SDS011;54862;51.502;7.446;2023-04-03T14:33:38;4.28;;;1.85;;
68072;SDS011;54862;51.502;7.446;2023-04-03T14:36:15;3.85;;;1.60;;
68072;SDS011;54862;51.502;7.446;2023-04-03T14:38:42;6.80;;;1.98;;
68072;SDS011;54862;51.502;7.446;2023-04-03T14:41:10;7.10;;;1.85;;
68072;SDS011;54862;51.502;7.446;2023-04-03T14:43:39;2.92;;;1.75;;
68072;SDS011;54862;51.502;7.446;2023-04-03T14:46:05;6.28;;;1.83;;
68072;SDS011;54862;51.502;7.446;2023-04-03T14:48:35;6.75;;;2.10;;
68072;SDS011;54862;51.502;7.446;2023-04-03T14:51:01;4.68;;;1.98;;
68072;SDS011;54862;51.502;7.446;2023-04-03T14:53:30;3.88;;;1.85;;
68072;SDS011;54862;51.502;7.446;2023-04-03T14:55:59;4.53;;;2.13;;
68072;SDS011;54862;51.502;7.446;2023-04-03T14:58:26;3.35;;;1.80;;
68072;SDS011;54862;51.502;7.446;2023-04-03T15:00:57;3.72;;;1.73;;
68072;SDS011;54862;51.502;7.446;2023-04-03T15:03:23;2.67;;;1.80;;
68072;SDS011;54862;51.502;7.446;2023-04-03T15:05:49;6.07;;;2.15;;
68072;SDS011;54862;51.502;7.446;2023-04-03T15:08:17;5.88;;;2.10;;
68072;SDS011;54862;51.502;7.446;2023-04-03T15:10:44;2.85;;;1.75;;
68072;SDS011;54862;51.502;7.446;2023-04-03T15:13:10;4.35;;;1.90;;
68072;SDS011;54862;51.502;7.446;2023-04-03T15:15:37;4.57;;;1.90;;
68072;SDS011;54862;51.502;7.446;2023-04-03T15:18:03;5.85;;;1.92;;
68072;SDS011;54862;51.502;7.446;2023-04-03T15:20:29;5.80;;;2.17;;
68072;SDS011;54862;51.502;7.446;2023-04-03T15:22:58;6.10;;;2.08;;
68072;SDS011;54862;51.502;7.446;2023-04-03T15:25:26;3.85;;;1.80;;
68072;SDS011;54862;51.502;7.446;2023-04-03T15:27:53;4.85;;;2.08;;
68072;SDS011;54862;51.502;7.446;2023-04-03T15:30:20;4.70;;;2.22;;
68072;SDS011;54862;51.502;7.446;2023-04-03T15:32:46;4.82;;;2.10;;
68072;SDS011;54862;51.502;7.446;2023-04-03T15:35:12;3.05;;;1.90;;
68072;SDS011;54862;51.502;7.446;2023-04-03T15:37:38;5.30;;;2.17;;
68072;SDS011;54862;51.502;7.446;2023-04-03T15:40:05;5.15;;;2.10;;
68072;SDS011;54862;51.502;7.446;2023-04-03T15:42:31;3.63;;;1.90;;
68072;SDS011;54862;51.502;7.446;2023-04-03T15:44:57;5.32;;;2.10;;
68072;SDS011;54862;51.502;7.446;2023-04-03T15:47:26;5.65;;;1.98;;
68072;SDS011;54862;51.502;7.446;2023-04-03T15:49:52;4.45;;;2.30;;
68072;SDS011;54862;51.502;7.446;2023-04-03T15:52:21;6.13;;;2.10;;
68072;SDS011;54862;51.502;7.446;2023-04-03T15:54:50;3.75;;;1.95;;
68072;SDS011;54862;51.502;7.446;2023-04-03T15:57:18;4.07;;;2.08;;
68072;SDS011;54862;51.502;7.446;2023-04-03T15:59:44;5.32;;;2.30;;
68072;SDS011;54862;51.502;7.446;2023-04-03T16:02:11;5.07;;;2.00;;
68072;SDS011;54862;51.502;7.446;2023-04-03T16:04:38;6.13;;;2.13;;
68072;SDS011;54862;51.502;7.446;2023-04-03T16:07:04;5.45;;;2.00;;
68072;SDS011;54862;51.502;7.446;2023-04-03T16:09:33;5.82;;;1.85;;
68072;SDS011;54862;51.502;7.446;2023-04-03T16:11:59;6.95;;;2.30;;
68072;SDS011;54862;51.502;7.446;2023-04-03T16:14:26;7.20;;;2.30;;
68072;SDS011;54862;51.502;7.446;2023-04-03T16:16:54;5.38;;;2.00;;
68072;SDS011;54862;51.502;7.446;2023-04-03T16:19:20;7.30;;;2.20;;
68072;SDS011;54862;51.502;7.446;2023-04-03T16:21:49;6.68;;;2.40;;
68072;SDS011;54862;51.502;7.446;2023-04-03T16:24:15;4.97;;;1.90;;
68072;SDS011;54862;51.502;7.446;2023-04-03T16:26:41;5.18;;;2.00;;
68072;SDS011;54862;51.502;7.446;2023-04-03T16:29:07;6.53;;;2.20;;
68072;SDS011;54862;51.502;7.446;2023-04-03T16:31:33;5.70;;;2.10;;
68072;SDS011;54862;51.502;7.446;2023-04-03T16:33:59;5.60;;;2.00;;